Time;durP1;ratioP1;P1;durP2;ratioP2;P2;SDS_P1;SDS_P2;PMS_P1;PMS_P2;Temp;Humidity;BMP_temperature;BMP_pressure;BME280_temperature;BME280_humidity;BME280_pressure;Samples;Min_cycle;Max_cycle;Signal;HPM_P1;HPM_P2
2023/05/07 00:01:19;;;;;;;61.15;41.03;;;;;;;;;;5012242;28;22116;-75
2023/05/07 00:03:45;;;;;;;58.55;41.65;;;;;;;;;;5030975;28;20151;-74
2023/05/07 00:06:12;;;;;;;62.42;42.33;;;;;;;;;;5011789;28;20119;-75
2023/05/07 00:08:38;;;;;;;59.65;41.72;;;;;;;;;;5042549;28;20041;-75
2023/05/07 00:11:03;;;;;;;62.45;43.22;;;;;;;;;;5012001;28;20080;-74
2023/05/07 00:13:35;;;;;;;63.97;45.33;;;;;;;;;;5015337;28;20038;-74
2023/05/07 00:16:00;;;;;;;60.25;44.13;;;;;;;;;;5010140;28;20095;-75
2023/05/07 00:18:25;;;;;;;66.22;44.17;;;;;;;;;;5009636;28;20082;-74
2023/05/07 00:20:50;;;;;;;68.13;45.05;;;;;;;;;;5040374;28;20045;-74
2023/05/07 00:23:16;;;;;;;59.83;44.83;;;;;;;;;;5011153;28;20048;-76
2023/05/07 00:25:42;;;;;;;66.28;45.75;;;;;;;;;;5006502;28;20052;-74
2023/05/07 00:28:07;;;;;;;67.35;45.50;;;;;;;;;;5011504;28;20089;-75
2023/05/07 00:30:35;;;;;;;68.13;46.53;;;;;;;;;;5042348;28;20592;-75
2023/05/07 00:33:00;;;;;;;67.35;45.03;;;;;;;;;;5011687;28;20056;-75
2023/05/07 00:35:25;;;;;;;75.93;49.92;;;;;;;;;;5011483;28;20716;-74
2023/05/07 00:37:51;;;;;;;82.07;51.25;;;;;;;;;;5010673;28;20033;-74
2023/05/07 00:40:16;;;;;;;82.53;51.85;;;;;;;;;;5041427;28;20045;-77
2023/05/07 00:42:41;;;;;;;85.07;52.70;;;;;;;;;;5004909;28;20040;-76
2023/05/07 00:45:07;;;;;;;78.80;49.40;;;;;;;;;;4989861;28;20055;-75
2023/05/07 00:47:32;;;;;;;71.30;47.35;;;;;;;;;;4990631;28;20176;-75
2023/05/07 00:49:58;;;;;;;65.07;44.47;;;;;;;;;;4992237;28;20042;-76
2023/05/07 00:52:25;;;;;;;64.80;45.17;;;;;;;;;;4992317;28;20068;-75
2023/05/07 00:54:53;;;;;;;66.38;45.38;;;;;;;;;;4989927;28;20417;-75
2023/05/07 00:57:18;;;;;;;70.13;48.10;;;;;;;;;;4990535;28;20044;-75
2023/05/07 00:59:44;;;;;;;69.10;47.75;;;;;;;;;;4997595;28;20044;-74
2023/05/07 01:02:12;;;;;;;76.00;49.30;;;;;;;;;;5020071;28;20030;-76
2023/05/07 01:04:37;;;;;;;77.40;50.85;;;;;;;;;;4990133;28;20041;-75
2023/05/07 01:07:03;;;;;;;85.45;55.45;;;;;;;;;;5021131;28;20030;-76
2023/05/07 01:09:28;;;;;;;87.10;57.38;;;;;;;;;;4990275;28;20193;-74
2023/05/07 01:11:55;;;;;;;97.82;62.13;;;;;;;;;;4991222;28;20060;-74
2023/05/07 01:14:20;;;;;;;96.28;62.88;;;;;;;;;;4990784;28;20037;-75
2023/05/07 01:16:46;;;;;;;106.82;68.05;;;;;;;;;;4989678;28;20026;-75
2023/05/07 01:19:13;;;;;;;112.20;72.47;;;;;;;;;;5020235;28;20034;-75
2023/05/07 01:21:41;;;;;;;115.00;73.43;;;;;;;;;;4988211;28;20053;-74
2023/05/07 01:24:06;;;;;;;117.95;73.18;;;;;;;;;;5021925;28;20620;-75
2023/05/07 01:26:31;;;;;;;114.07;70.60;;;;;;;;;;5001432;28;20044;-75
2023/05/07 01:28:56;;;;;;;110.30;70.45;;;;;;;;;;4989219;28;20040;-75
2023/05/07 01:31:23;;;;;;;110.03;68.90;;;;;;;;;;4988780;28;20584;-77
2023/05/07 01:33:49;;;;;;;108.88;69.95;;;;;;;;;;4991581;28;20882;-78
2023/05/07 01:36:15;;;;;;;113.55;71.53;;;;;;;;;;4988763;28;20541;-76
2023/05/07 01:38:41;;;;;;;117.13;70.57;;;;;;;;;;4993681;28;20045;-75
2023/05/07 01:41:09;;;;;;;118.57;70.90;;;;;;;;;;4994379;28;20071;-77
2023/05/07 01:43:34;;;;;;;108.70;67.53;;;;;;;;;;4994956;28;20893;-74
2023/05/07 01:46:02;;;;;;;115.05;68.80;;;;;;;;;;4990155;28;20068;-75
2023/05/07 01:48:28;;;;;;;111.82;68.97;;;;;;;;;;4989586;28;20038;-75
2023/05/07 01:50:58;;;;;;;112.63;70.30;;;;;;;;;;4993689;28;20858;-75
2023/05/07 01:53:26;;;;;;;110.85;69.50;;;;;;;;;;5019447;28;20038;-74
2023/05/07 01:55:52;;;;;;;115.18;70.57;;;;;;;;;;4978169;28;20037;-74
2023/05/07 01:58:17;;;;;;;121.53;72.30;;;;;;;;;;4990312;28;20048;-75
2023/05/07 02:00:42;;;;;;;118.22;72.20;;;;;;;;;;5007553;28;20052;-75
2023/05/07 02:03:07;;;;;;;115.93;69.35;;;;;;;;;;5007573;28;20037;-75
2023/05/07 02:05:33;;;;;;;113.85;69.82;;;;;;;;;;5040642;28;20033;-75
2023/05/07 02:07:58;;;;;;;114.22;70.13;;;;;;;;;;5024708;28;20468;-75
2023/05/07 02:10:23;;;;;;;114.00;68.82;;;;;;;;;;5008063;28;20041;-75
2023/05/07 02:12:48;;;;;;;112.07;69.95;;;;;;;;;;5008904;28;20044;-75
2023/05/07 02:15:14;;;;;;;110.68;68.20;;;;;;;;;;5008067;28;20135;-75
2023/05/07 02:18:00;;;;;;;108.78;68.80;;;;;;;;;;5008754;28;20623;-76
2023/05/07 02:20:26;;;;;;;107.57;67.18;;;;;;;;;;5008483;28;20211;-75
2023/05/07 02:22:51;;;;;;;107.38;66.07;;;;;;;;;;5015206;28;20068;-76
2023/05/07 02:25:16;;;;;;;108.97;65.05;;;;;;;;;;5010697;28;20041;-74
2023/05/07 02:27:41;;;;;;;108.50;66.75;;;;;;;;;;5010023;28;20043;-75
2023/05/07 02:30:07;;;;;;;108.35;64.90;;;;;;;;;;5015969;28;22225;-76
2023/05/07 02:32:32;;;;;;;97.25;64.53;;;;;;;;;;5040021;28;20052;-76
2023/05/07 02:34:59;;;;;;;101.90;64.35;;;;;;;;;;5038743;28;20603;-76
2023/05/07 02:37:25;;;;;;;96.18;61.20;;;;;;;;;;5008257;28;20030;-77
2023/05/07 02:39:50;;;;;;;96.75;61.35;;;;;;;;;;5037716;28;22242;-78
2023/05/07 02:42:15;;;;;;;90.05;59.42;;;;;;;;;;5023955;28;20033;-79
2023/05/07 02:44:43;;;;;;;93.00;58.50;;;;;;;;;;5007248;28;20079;-78
2023/05/07 02:47:13;;;;;;;83.28;55.53;;;;;;;;;;5007925;28;20026;-78
2023/05/07 02:49:38;;;;;;;90.25;56.63;;;;;;;;;;5013048;28;20653;-78
2023/05/07 02:52:04;;;;;;;82.57;54.53;;;;;;;;;;5008196;28;20038;-77
2023/05/07 02:54:29;;;;;;;86.95;54.50;;;;;;;;;;5007729;28;20664;-77
2023/05/07 02:56:55;;;;;;;75.88;50.35;;;;;;;;;;5039164;28;20037;-77
2023/05/07 02:59:20;;;;;;;70.70;49.20;;;;;;;;;;5008781;28;20049;-77
2023/05/07 03:01:50;;;;;;;76.25;51.03;;;;;;;;;;5037051;28;20055;-77
2023/05/07 03:04:15;;;;;;;72.90;49.05;;;;;;;;;;4986159;28;20057;-76
2023/05/07 03:06:40;;;;;;;72.18;46.25;;;;;;;;;;4991637;28;20115;-76
2023/05/07 03:09:07;;;;;;;63.00;43.92;;;;;;;;;;5008195;28;20042;-78
2023/05/07 03:11:32;;;;;;;65.88;43.65;;;;;;;;;;5007791;28;20038;-76
2023/05/07 03:14:00;;;;;;;62.15;43.40;;;;;;;;;;5008759;28;20048;-78
2023/05/07 03:16:25;;;;;;;56.25;41.05;;;;;;;;;;5001024;28;20037;-77
2023/05/07 03:18:50;;;;;;;56.17;40.47;;;;;;;;;;5008595;28;20045;-77
2023/05/07 03:21:16;;;;;;;58.53;39.00;;;;;;;;;;5007419;28;20045;-77
2023/05/07 03:23:41;;;;;;;49.70;34.80;;;;;;;;;;5005865;28;22235;-76
2023/05/07 03:26:06;;;;;;;49.13;34.28;;;;;;;;;;5011187;28;20038;-77
2023/05/07 03:28:32;;;;;;;44.50;31.40;;;;;;;;;;5008662;28;20056;-77
2023/05/07 03:30:57;;;;;;;41.28;29.35;;;;;;;;;;5037860;28;20140;-78
2023/05/07 03:33:22;;;;;;;44.60;30.25;;;;;;;;;;5038421;28;20043;-78
2023/05/07 03:35:47;;;;;;;36.70;26.80;;;;;;;;;;5007140;28;20033;-78
2023/05/07 03:38:15;;;;;;;40.35;27.00;;;;;;;;;;5007777;28;20071;-79
2023/05/07 03:40:40;;;;;;;40.30;28.30;;;;;;;;;;4996398;28;20052;-77
2023/05/07 03:43:05;;;;;;;37.83;27.40;;;;;;;;;;5008642;28;20044;-81
2023/05/07 03:45:31;;;;;;;37.70;27.98;;;;;;;;;;5007710;28;22271;-76
2023/05/07 03:47:56;;;;;;;37.58;25.23;;;;;;;;;;5010946;28;20037;-77
2023/05/07 03:50:21;;;;;;;33.38;23.30;;;;;;;;;;5010619;28;20067;-78
2023/05/07 03:52:46;;;;;;;32.05;22.05;;;;;;;;;;5012544;28;20633;-77
2023/05/07 03:55:14;;;;;;;31.52;22.63;;;;;;;;;;5014803;28;20046;-75
2023/05/07 03:57:39;;;;;;;30.92;22.17;;;;;;;;;;5041104;28;20041;-78
2023/05/07 04:00:06;;;;;;;31.35;22.88;;;;;;;;;;5011973;28;20520;-77
2023/05/07 04:02:32;;;;;;;33.85;24.13;;;;;;;;;;5010377;28;20107;-77
2023/05/07 04:04:57;;;;;;;33.33;22.27;;;;;;;;;;5009141;28;20037;-76
2023/05/07 04:07:23;;;;;;;31.02;20.52;;;;;;;;;;5015135;28;20038;-79
2023/05/07 04:09:48;;;;;;;32.05;21.08;;;;;;;;;;5027446;28;20135;-77
2023/05/07 04:12:13;;;;;;;29.75;21.63;;;;;;;;;;5040765;28;20037;-79
2023/05/07 04:14:38;;;;;;;32.08;21.17;;;;;;;;;;5010586;28;20132;-77
2023/05/07 04:17:06;;;;;;;29.30;18.52;;;;;;;;;;5010272;28;20036;-78
2023/05/07 04:19:33;;;;;;;31.50;20.02;;;;;;;;;;5040968;28;20041;-79
2023/05/07 04:21:58;;;;;;;29.48;17.30;;;;;;;;;;5042525;28;20635;-80
2023/05/07 04:24:23;;;;;;;22.52;14.63;;;;;;;;;;5024472;28;20064;-78
2023/05/07 04:26:48;;;;;;;20.25;12.80;;;;;;;;;;5011019;28;20133;-79
2023/05/07 04:29:14;;;;;;;21.02;12.05;;;;;;;;;;5010596;28;20042;-79
2023/05/07 04:31:44;;;;;;;18.00;12.20;;;;;;;;;;5010269;28;20042;-78
2023/05/07 04:34:09;;;;;;;20.27;12.88;;;;;;;;;;5010201;28;20029;-80
2023/05/07 04:36:34;;;;;;;23.48;15.68;;;;;;;;;;5027455;28;22248;-79
2023/05/07 04:39:00;;;;;;;22.20;15.13;;;;;;;;;;5010226;28;20041;-77
2023/05/07 04:41:25;;;;;;;20.83;12.48;;;;;;;;;;5014380;28;20125;-77
2023/05/07 04:43:51;;;;;;;24.55;14.85;;;;;;;;;;5009174;28;20037;-78
2023/05/07 04:46:16;;;;;;;17.20;11.85;;;;;;;;;;5012535;28;20048;-78
2023/05/07 04:48:44;;;;;;;25.05;16.02;;;;;;;;;;5040951;28;20033;-77
2023/05/07 04:51:09;;;;;;;20.20;14.85;;;;;;;;;;5021856;28;20673;-78
2023/05/07 04:53:34;;;;;;;25.98;15.00;;;;;;;;;;5009605;28;20029;-76
2023/05/07 04:55:59;;;;;;;24.85;13.80;;;;;;;;;;5009644;28;20383;-77
2023/05/07 04:58:25;;;;;;;26.33;15.32;;;;;;;;;;5039685;28;20029;-78
2023/05/07 05:00:50;;;;;;;19.98;13.00;;;;;;;;;;5010830;28;20076;-78
2023/05/07 05:03:15;;;;;;;18.77;11.95;;;;;;;;;;5009759;28;20095;-79
2023/05/07 05:05:40;;;;;;;21.73;12.18;;;;;;;;;;5009011;28;20042;-77
2023/05/07 05:08:06;;;;;;;19.58;11.25;;;;;;;;;;5009145;28;20136;-78
2023/05/07 05:10:31;;;;;;;17.00;10.77;;;;;;;;;;5010795;28;20037;-78
2023/05/07 05:12:56;;;;;;;18.95;10.75;;;;;;;;;;5010901;28;20059;-76
2023/05/07 05:15:21;;;;;;;18.65;11.27;;;;;;;;;;5041376;28;20040;-74
2023/05/07 05:17:47;;;;;;;17.38;10.77;;;;;;;;;;5007537;28;20037;-72
2023/05/07 05:20:12;;;;;;;18.20;11.23;;;;;;;;;;5005192;28;20127;-74
2023/05/07 05:22:38;;;;;;;17.42;11.65;;;;;;;;;;5038302;28;20073;-72
2023/05/07 05:25:03;;;;;;;19.83;13.07;;;;;;;;;;5006249;28;20043;-71
2023/05/07 05:27:28;;;;;;;21.85;14.35;;;;;;;;;;5035920;28;20036;-71
2023/05/07 05:29:54;;;;;;;22.27;14.63;;;;;;;;;;5005183;28;20732;-71
2023/05/07 05:32:19;;;;;;;25.25;14.77;;;;;;;;;;5005222;28;20064;-70
2023/05/07 05:34:47;;;;;;;26.85;16.25;;;;;;;;;;5002335;28;20146;-72
2023/05/07 05:37:12;;;;;;;25.17;15.38;;;;;;;;;;5037686;28;20434;-72
2023/05/07 05:39:37;;;;;;;22.27;13.93;;;;;;;;;;5005627;28;20048;-72
2023/05/07 05:42:03;;;;;;;18.75;13.15;;;;;;;;;;5008579;28;20800;-72
2023/05/07 05:44:28;;;;;;;20.85;13.88;;;;;;;;;;5037665;28;20633;-70
2023/05/07 05:46:57;;;;;;;19.38;12.75;;;;;;;;;;5006349;28;20033;-71
2023/05/07 05:49:22;;;;;;;21.40;13.30;;;;;;;;;;5039017;28;20037;-72
2023/05/07 05:51:48;;;;;;;20.63;13.13;;;;;;;;;;5005648;28;20400;-71
2023/05/07 05:54:15;;;;;;;18.98;12.38;;;;;;;;;;5007600;28;22201;-71
2023/05/07 05:56:41;;;;;;;16.77;10.98;;;;;;;;;;5008341;28;20040;-71
2023/05/07 05:59:09;;;;;;;16.08;10.00;;;;;;;;;;4999691;28;20048;-71
2023/05/07 06:01:34;;;;;;;14.20;9.98;;;;;;;;;;5008313;28;20084;-72
2023/05/07 06:03:59;;;;;;;13.32;9.82;;;;;;;;;;5006622;28;20487;-72
2023/05/07 06:06:25;;;;;;;12.88;9.55;;;;;;;;;;5004556;28;20795;-73
2023/05/07 06:08:51;;;;;;;14.05;9.52;;;;;;;;;;5004351;28;20037;-73
2023/05/07 06:11:16;;;;;;;16.30;10.20;;;;;;;;;;5005350;28;20690;-71
2023/05/07 06:13:41;;;;;;;12.02;9.55;;;;;;;;;;5006979;28;20119;-72
2023/05/07 06:16:09;;;;;;;11.98;9.95;;;;;;;;;;5005185;28;20033;-70
2023/05/07 06:18:36;;;;;;;11.23;9.07;;;;;;;;;;5006748;28;20042;-71
2023/05/07 06:21:02;;;;;;;12.27;9.27;;;;;;;;;;5008137;28;20128;-69
2023/05/07 06:23:27;;;;;;;14.15;10.07;;;;;;;;;;5007213;28;20059;-71
2023/05/07 06:25:52;;;;;;;13.85;9.75;;;;;;;;;;5005927;28;20041;-70
2023/05/07 06:28:18;;;;;;;14.02;10.68;;;;;;;;;;5037026;28;20453;-72
2023/05/07 06:30:43;;;;;;;14.00;11.07;;;;;;;;;;5005102;28;20041;-72
2023/05/07 06:33:08;;;;;;;13.80;10.60;;;;;;;;;;5037380;28;20037;-71
2023/05/07 06:35:34;;;;;;;18.05;10.77;;;;;;;;;;5004937;28;20176;-73
2023/05/07 06:37:59;;;;;;;12.60;10.65;;;;;;;;;;5007156;28;20741;-71
2023/05/07 06:40:25;;;;;;;16.48;11.73;;;;;;;;;;5007449;28;20121;-71
2023/05/07 06:42:50;;;;;;;17.33;11.75;;;;;;;;;;5007052;28;20041;-72
2023/05/07 06:45:15;;;;;;;15.95;11.63;;;;;;;;;;5006822;28;20546;-71
2023/05/07 06:47:40;;;;;;;14.95;12.88;;;;;;;;;;5005835;28;20107;-71
2023/05/07 06:50:06;;;;;;;14.77;12.85;;;;;;;;;;5005870;28;20119;-70
2023/05/07 06:52:31;;;;;;;20.52;14.90;;;;;;;;;;5007743;28;20038;-71
2023/05/07 06:54:57;;;;;;;21.90;16.13;;;;;;;;;;5007507;28;22332;-72
2023/05/07 06:57:22;;;;;;;20.98;16.17;;;;;;;;;;5007152;28;20128;-70
2023/05/07 06:59:47;;;;;;;22.70;17.27;;;;;;;;;;5007473;28;20029;-72
2023/05/07 07:02:12;;;;;;;23.00;18.05;;;;;;;;;;5007465;28;20037;-69
2023/05/07 07:04:38;;;;;;;23.20;18.75;;;;;;;;;;5009455;28;20034;-72
2023/05/07 07:07:03;;;;;;;23.95;19.13;;;;;;;;;;5038595;28;20034;-72
2023/05/07 07:09:31;;;;;;;22.38;19.45;;;;;;;;;;5038222;28;20073;-71
2023/05/07 07:11:56;;;;;;;22.20;17.63;;;;;;;;;;5008312;28;20841;-70
2023/05/07 07:14:21;;;;;;;20.38;15.98;;;;;;;;;;5006095;28;20546;-71
2023/05/07 07:16:46;;;;;;;16.13;14.43;;;;;;;;;;5005931;28;20080;-70
2023/05/07 07:19:12;;;;;;;18.40;15.00;;;;;;;;;;5038452;28;20037;-70
2023/05/07 07:21:37;;;;;;;15.57;13.35;;;;;;;;;;5039935;28;20041;-71
2023/05/07 07:24:02;;;;;;;14.18;12.68;;;;;;;;;;5041291;28;22480;-71
2023/05/07 07:26:28;;;;;;;13.65;11.52;;;;;;;;;;5008721;28;20041;-70
2023/05/07 07:28:55;;;;;;;13.95;11.50;;;;;;;;;;5009233;28;20041;-71
2023/05/07 07:31:23;;;;;;;15.20;11.98;;;;;;;;;;5024139;28;20103;-69
2023/05/07 07:33:49;;;;;;;14.32;11.10;;;;;;;;;;5042061;28;20075;-71
2023/05/07 07:36:15;;;;;;;15.32;11.88;;;;;;;;;;5008857;28;20048;-71
2023/05/07 07:38:40;;;;;;;14.80;11.98;;;;;;;;;;5009706;28;20652;-74
2023/05/07 07:41:07;;;;;;;15.18;12.52;;;;;;;;;;5010613;28;20132;-74
2023/05/07 07:43:32;;;;;;;14.10;12.15;;;;;;;;;;5011780;28;20044;-76
2023/05/07 07:45:58;;;;;;;14.15;11.68;;;;;;;;;;5013504;28;20037;-76
2023/05/07 07:48:23;;;;;;;15.68;11.43;;;;;;;;;;5011215;28;20076;-67
2023/05/07 07:50:53;;;;;;;13.98;11.32;;;;;;;;;;5010323;28;20064;-67
2023/05/07 07:53:19;;;;;;;15.02;12.15;;;;;;;;;;5007987;28;20037;-66
2023/05/07 07:55:44;;;;;;;14.82;12.15;;;;;;;;;;5014630;28;20033;-68
2023/05/07 07:58:10;;;;;;;15.95;11.82;;;;;;;;;;5011287;28;20048;-70
2023/05/07 08:00:38;;;;;;;14.93;11.52;;;;;;;;;;5009471;28;20175;-68
2023/05/07 08:03:03;;;;;;;15.90;11.90;;;;;;;;;;5013880;28;20037;-66
2023/05/07 08:05:28;;;;;;;13.65;11.73;;;;;;;;;;5010441;28;20701;-68
2023/05/07 08:07:54;;;;;;;12.93;11.40;;;;;;;;;;5009026;28;20040;-70
2023/05/07 08:10:22;;;;;;;15.75;11.57;;;;;;;;;;5008924;28;20208;-70
2023/05/07 08:12:53;;;;;;;15.02;11.77;;;;;;;;;;5011574;28;20087;-70
2023/05/07 08:15:18;;;;;;;15.68;11.10;;;;;;;;;;5039818;28;20553;-69
2023/05/07 08:17:43;;;;;;;14.88;11.55;;;;;;;;;;5010343;28;20036;-68
2023/05/07 08:20:11;;;;;;;15.88;11.40;;;;;;;;;;5011860;28;20033;-70
2023/05/07 08:22:37;;;;;;;13.57;9.35;;;;;;;;;;5016552;28;20037;-70
2023/05/07 08:25:02;;;;;;;11.00;9.13;;;;;;;;;;5041490;28;20033;-69
2023/05/07 08:27:30;;;;;;;12.70;9.95;;;;;;;;;;5006540;28;20116;-68
2023/05/07 08:29:56;;;;;;;12.63;9.70;;;;;;;;;;5041076;28;20034;-68
2023/05/07 08:32:21;;;;;;;13.73;9.73;;;;;;;;;;5039408;28;20029;-67
2023/05/07 08:34:47;;;;;;;13.68;9.52;;;;;;;;;;5017814;28;20061;-67
2023/05/07 08:37:12;;;;;;;12.18;9.02;;;;;;;;;;5009111;28;20522;-65
2023/05/07 08:39:38;;;;;;;12.48;8.90;;;;;;;;;;5008444;28;20029;-68
2023/05/07 08:42:04;;;;;;;11.55;8.15;;;;;;;;;;5008638;28;20133;-68
2023/05/07 08:44:33;;;;;;;10.10;8.02;;;;;;;;;;5028856;28;20095;-67
2023/05/07 08:46:59;;;;;;;13.50;8.18;;;;;;;;;;5013571;28;20743;-67
2023/05/07 08:49:24;;;;;;;10.10;8.27;;;;;;;;;;5041125;28;22224;-66
2023/05/07 08:51:52;;;;;;;9.00;6.57;;;;;;;;;;5007904;28;20585;-68
2023/05/07 08:54:19;;;;;;;9.85;7.40;;;;;;;;;;5007353;28;20113;-69
2023/05/07 08:56:44;;;;;;;12.13;7.57;;;;;;;;;;5039882;28;20034;-68
2023/05/07 08:59:10;;;;;;;10.35;6.57;;;;;;;;;;5007789;28;20048;-67
2023/05/07 09:01:35;;;;;;;11.63;7.80;;;;;;;;;;5039043;28;20151;-68
2023/05/07 09:04:01;;;;;;;12.80;9.00;;;;;;;;;;5009392;28;20072;-67
2023/05/07 09:06:26;;;;;;;11.93;8.38;;;;;;;;;;5038083;28;20037;-67
2023/05/07 09:08:54;;;;;;;12.85;7.57;;;;;;;;;;5008159;28;20044;-66
2023/05/07 09:11:23;;;;;;;11.32;8.07;;;;;;;;;;5007551;28;20033;-65
2023/05/07 09:13:52;;;;;;;7.15;4.50;;;;;;;;;;5008063;28;20045;-66
2023/05/07 09:16:20;;;;;;;10.77;5.70;;;;;;;;;;5007353;28;20144;-66
2023/05/07 09:18:46;;;;;;;8.10;5.43;;;;;;;;;;5010706;28;20141;-64
2023/05/07 09:21:14;;;;;;;8.23;5.60;;;;;;;;;;4997513;28;20048;-67
2023/05/07 09:23:40;;;;;;;10.10;5.88;;;;;;;;;;5005127;28;20048;-64
2023/05/07 09:26:11;;;;;;;9.48;6.13;;;;;;;;;;5005469;28;20870;-67
2023/05/07 09:28:37;;;;;;;11.43;6.18;;;;;;;;;;5006438;28;20056;-67
2023/05/07 09:31:03;;;;;;;9.43;5.85;;;;;;;;;;5006691;28;20132;-72
2023/05/07 09:33:29;;;;;;;8.70;6.20;;;;;;;;;;5007505;28;20041;-67
2023/05/07 09:35:57;;;;;;;9.40;5.55;;;;;;;;;;5009213;28;20163;-66
2023/05/07 09:38:22;;;;;;;8.73;5.55;;;;;;;;;;5005689;28;20051;-66
2023/05/07 09:41:01;;;;;;;7.65;4.60;;;;;;;;;;5009155;28;20588;-66
2023/05/07 09:43:28;;;;;;;7.75;5.40;;;;;;;;;;5007810;28;20202;-66
2023/05/07 09:45:53;;;;;;;7.55;5.75;;;;;;;;;;5038675;28;20119;-66
2023/05/07 09:48:19;;;;;;;8.35;5.57;;;;;;;;;;5033884;28;20041;-66
2023/05/07 09:50:48;;;;;;;6.60;4.32;;;;;;;;;;5006768;28;20563;-66
2023/05/07 09:53:14;;;;;;;6.38;4.22;;;;;;;;;;5013910;28;20025;-65
2023/05/07 09:55:39;;;;;;;8.55;4.68;;;;;;;;;;5007572;28;20044;-67
2023/05/07 09:58:06;;;;;;;6.00;3.60;;;;;;;;;;5007215;28;20041;-66
2023/05/07 10:00:35;;;;;;;7.18;4.43;;;;;;;;;;5006916;28;20041;-67
2023/05/07 10:03:03;;;;;;;7.30;3.97;;;;;;;;;;5007022;28;20810;-65
2023/05/07 10:05:29;;;;;;;8.70;5.30;;;;;;;;;;5013924;28;20041;-67
2023/05/07 10:07:55;;;;;;;8.50;4.90;;;;;;;;;;5008441;28;20037;-67
2023/05/07 10:10:20;;;;;;;7.57;4.22;;;;;;;;;;5007445;28;20029;-67
2023/05/07 10:12:48;;;;;;;10.13;5.90;;;;;;;;;;5007287;28;20102;-67
2023/05/07 10:15:14;;;;;;;10.57;5.78;;;;;;;;;;5006707;28;20134;-69
2023/05/07 10:17:40;;;;;;;8.63;5.75;;;;;;;;;;5006183;28;20072;-65
2023/05/07 10:20:06;;;;;;;11.20;5.18;;;;;;;;;;5006431;28;20510;-67
2023/05/07 10:22:42;;;;;;;7.72;4.50;;;;;;;;;;5025907;28;20041;-68
2023/05/07 10:25:14;;;;;;;8.63;5.78;;;;;;;;;;5006518;28;20092;-67
2023/05/07 10:27:43;;;;;;;9.43;5.18;;;;;;;;;;5006908;28;20033;-67
2023/05/07 10:30:15;;;;;;;9.25;5.35;;;;;;;;;;5007827;28;22284;-67
2023/05/07 10:32:50;;;;;;;8.85;5.60;;;;;;;;;;5006848;28;20748;-66
2023/05/07 10:35:24;;;;;;;12.63;6.28;;;;;;;;;;5007262;28;20095;-66
2023/05/07 10:37:54;;;;;;;8.90;6.57;;;;;;;;;;5036173;28;20040;-66
2023/05/07 10:40:20;;;;;;;11.88;5.85;;;;;;;;;;5005045;28;20052;-67
2023/05/07 10:42:55;;;;;;;8.07;5.63;;;;;;;;;;5006029;28;20041;-68
2023/05/07 10:45:21;;;;;;;8.27;5.60;;;;;;;;;;5037814;28;20159;-68
2023/05/07 10:48:05;;;;;;;8.35;6.05;;;;;;;;;;5005067;28;20044;-68
2023/05/07 10:50:30;;;;;;;10.07;5.85;;;;;;;;;;5005600;28;20041;-68
2023/05/07 10:53:14;;;;;;;7.93;5.32;;;;;;;;;;5005460;28;20152;-67
2023/05/07 10:55:39;;;;;;;11.90;8.40;;;;;;;;;;5040666;28;20037;-67
2023/05/07 10:58:25;;;;;;;11.40;8.45;;;;;;;;;;5011347;28;20045;-67
2023/05/07 11:00:51;;;;;;;14.18;9.80;;;;;;;;;;5009158;28;20049;-68
2023/05/07 11:03:16;;;;;;;13.55;9.75;;;;;;;;;;5030000;28;20029;-67
2023/05/07 11:05:41;;;;;;;13.30;9.27;;;;;;;;;;5010081;28;20951;-68
2023/05/07 11:08:07;;;;;;;13.65;10.45;;;;;;;;;;5018333;28;20037;-67
2023/05/07 11:10:49;;;;;;;13.52;11.13;;;;;;;;;;5012421;28;20133;-67
2023/05/07 11:13:14;;;;;;;;;;;;;;;;;;4990991;28;20041;-67
2023/05/07 11:15:49;;;;;;;26.80;13.95;;;;;;;;;;5022503;28;19914;-67
2023/05/07 11:18:16;;;;;;;17.63;13.95;;;;;;;;;;4989517;28;20049;-67
2023/05/07 11:20:44;;;;;;;22.48;15.02;;;;;;;;;;4990534;28;20309;-68
2023/05/07 11:23:30;;;;;;;18.13;14.98;;;;;;;;;;4989366;28;20048;-67
2023/05/07 11:26:02;;;;;;;19.95;15.10;;;;;;;;;;4988244;28;20998;-68
2023/05/07 11:28:28;;;;;;;19.92;16.67;;;;;;;;;;4989099;28;20053;-67
2023/05/07 11:30:53;;;;;;;23.30;16.92;;;;;;;;;;4989750;28;20037;-67
2023/05/07 11:33:19;;;;;;;19.38;15.77;;;;;;;;;;4989927;28;20042;-66
2023/05/07 11:35:45;;;;;;;22.30;17.50;;;;;;;;;;4991079;28;20038;-67
2023/05/07 11:38:10;;;;;;;19.73;16.17;;;;;;;;;;4998551;28;20836;-67
2023/05/07 11:40:48;;;;;;;18.20;15.65;;;;;;;;;;4988268;28;20050;-66
2023/05/07 11:43:13;;;;;;;21.08;16.25;;;;;;;;;;5020686;28;20764;-66
2023/05/07 11:45:38;;;;;;;24.40;16.05;;;;;;;;;;4990116;28;20119;-66
2023/05/07 11:48:04;;;;;;;18.65;14.60;;;;;;;;;;4987824;28;20045;-67
2023/05/07 11:50:29;;;;;;;22.92;15.77;;;;;;;;;;4993413;28;20041;-66
2023/05/07 11:52:55;;;;;;;18.90;14.48;;;;;;;;;;5000714;28;20038;-66
2023/05/07 11:55:21;;;;;;;18.30;15.15;;;;;;;;;;4988734;28;20042;-66
2023/05/07 11:57:47;;;;;;;18.80;15.50;;;;;;;;;;4989191;28;20033;-64
2023/05/07 12:00:15;;;;;;;20.38;14.75;;;;;;;;;;4988843;28;20042;-66
2023/05/07 12:02:41;;;;;;;19.98;13.90;;;;;;;;;;4989467;28;20033;-66
2023/05/07 12:05:09;;;;;;;20.42;14.27;;;;;;;;;;5006760;28;20801;-65
2023/05/07 12:07:34;;;;;;;24.75;13.98;;;;;;;;;;5005934;28;20038;-66
2023/05/07 12:10:04;;;;;;;20.73;14.52;;;;;;;;;;5006638;28;22578;-64
2023/05/07 12:12:29;;;;;;;20.40;14.05;;;;;;;;;;5038188;28;20037;-65
2023/05/07 12:14:54;;;;;;;22.80;14.55;;;;;;;;;;5005202;28;20747;-65
2023/05/07 12:17:20;;;;;;;17.52;14.10;;;;;;;;;;5037957;28;20025;-65
2023/05/07 12:19:45;;;;;;;22.67;14.88;;;;;;;;;;5036822;28;20095;-65
2023/05/07 12:22:11;;;;;;;18.13;14.40;;;;;;;;;;5019700;28;20056;-66
2023/05/07 12:24:44;;;;;;;20.30;15.00;;;;;;;;;;5002890;28;20052;-66
2023/05/07 12:27:09;;;;;;;23.67;15.25;;;;;;;;;;5004293;28;20037;-64
2023/05/07 12:29:35;;;;;;;20.70;14.38;;;;;;;;;;5003892;28;20044;-65
2023/05/07 12:32:00;;;;;;;21.60;15.52;;;;;;;;;;5015103;28;20030;-64
2023/05/07 12:34:28;;;;;;;19.92;15.45;;;;;;;;;;4985556;28;20044;-65
2023/05/07 12:36:55;;;;;;;16.85;14.00;;;;;;;;;;4983936;28;20161;-64
2023/05/07 12:39:23;;;;;;;17.13;14.35;;;;;;;;;;4986227;28;20038;-63
2023/05/07 12:41:53;;;;;;;20.95;16.52;;;;;;;;;;4991889;28;20065;-65
2023/05/07 12:44:18;;;;;;;18.35;15.40;;;;;;;;;;4994265;28;20037;-65
2023/05/07 12:46:46;;;;;;;21.90;15.50;;;;;;;;;;4988383;28;20038;-64
2023/05/07 12:49:14;;;;;;;20.88;15.80;;;;;;;;;;5013577;28;20034;-65
2023/05/07 12:51:39;;;;;;;20.13;16.48;;;;;;;;;;5011980;28;20041;-65
2023/05/07 12:54:04;;;;;;;19.48;16.83;;;;;;;;;;4989721;28;20096;-64
2023/05/07 12:56:35;;;;;;;22.90;17.65;;;;;;;;;;4997695;28;20065;-64
2023/05/07 12:59:00;;;;;;;24.45;19.40;;;;;;;;;;5014918;28;20048;-65
2023/05/07 13:01:30;;;;;;;28.70;19.88;;;;;;;;;;5028124;28;20103;-65
2023/05/07 13:03:55;;;;;;;23.55;20.83;;;;;;;;;;4988102;28;20086;-64
2023/05/07 13:06:21;;;;;;;23.98;21.35;;;;;;;;;;4985759;28;20955;-64
2023/05/07 13:08:46;;;;;;;24.92;21.65;;;;;;;;;;4987024;28;20060;-64
2023/05/07 13:11:12;;;;;;;30.15;23.90;;;;;;;;;;4987619;28;20735;-63
2023/05/07 13:13:38;;;;;;;30.33;24.70;;;;;;;;;;4986055;28;20032;-67
2023/05/07 13:16:04;;;;;;;29.33;23.67;;;;;;;;;;4991266;28;20175;-65
2023/05/07 13:18:33;;;;;;;28.23;24.65;;;;;;;;;;5017977;28;20037;-64
2023/05/07 13:20:58;;;;;;;34.13;25.98;;;;;;;;;;4988477;28;20038;-63
2023/05/07 13:23:23;;;;;;;31.48;26.17;;;;;;;;;;5018728;28;20743;-64
2023/05/07 13:25:50;;;;;;;32.17;27.05;;;;;;;;;;4989115;28;20521;-64
2023/05/07 13:28:18;;;;;;;31.75;27.83;;;;;;;;;;5004994;28;20045;-65
2023/05/07 13:30:43;;;;;;;31.20;26.77;;;;;;;;;;4985564;28;20945;-66
2023/05/07 13:33:08;;;;;;;30.70;26.23;;;;;;;;;;4987742;28;20062;-68
2023/05/07 13:35:34;;;;;;;32.33;27.00;;;;;;;;;;4988955;28;20042;-68
2023/05/07 13:37:59;;;;;;;35.53;28.05;;;;;;;;;;4988496;28;20084;-70
2023/05/07 13:40:24;;;;;;;32.10;28.63;;;;;;;;;;4988498;28;20132;-69
2023/05/07 13:42:50;;;;;;;31.25;26.73;;;;;;;;;;4989728;28;20534;-68
2023/05/07 13:45:16;;;;;;;33.53;27.52;;;;;;;;;;5019382;28;20117;-69
2023/05/07 13:47:41;;;;;;;32.55;27.83;;;;;;;;;;5036372;28;20056;-69
2023/05/07 13:50:08;;;;;;;36.03;28.20;;;;;;;;;;5037941;28;20073;-69
2023/05/07 13:52:33;;;;;;;33.22;27.58;;;;;;;;;;5010891;28;20049;-69
2023/05/07 13:54:58;;;;;;;35.00;27.75;;;;;;;;;;5006539;28;20038;-69
2023/05/07 13:57:24;;;;;;;35.00;27.40;;;;;;;;;;5007024;28;20037;-68
2023/05/07 13:59:51;;;;;;;31.83;26.85;;;;;;;;;;5005776;28;20072;-69
2023/05/07 14:02:17;;;;;;;33.70;26.85;;;;;;;;;;5014379;28;20049;-69
2023/05/07 14:04:45;;;;;;;30.67;26.05;;;;;;;;;;5011042;28;20038;-70
2023/05/07 14:07:10;;;;;;;29.48;25.45;;;;;;;;;;5009977;28;20475;-70
2023/05/07 14:09:35;;;;;;;29.25;23.98;;;;;;;;;;5031179;28;20042;-69
2023/05/07 14:12:03;;;;;;;26.15;23.38;;;;;;;;;;4994460;28;20487;-71
2023/05/07 14:14:31;;;;;;;27.15;23.25;;;;;;;;;;5000902;28;20033;-71
2023/05/07 14:16:58;;;;;;;26.25;21.95;;;;;;;;;;5002149;28;20123;-70